sensor_id;sensor_type;location;lat;lon;timestamp;P1;durP1;ratioP1;P2;durP2;ratioP2
38557;SDS011;24333;42.626;23.308;2022-10-16T00:09:21;6.47;;;2.70;;
38557;SDS011;24333;42.626;23.308;2022-10-16T00:11:47;4.45;;;2.40;;
38557;SDS011;24333;42.626;23.308;2022-10-16T00:14:13;4.70;;;2.13;;
38557;SDS011;24333;42.626;23.308;2022-10-16T00:16:46;4.05;;;2.05;;
38557;SDS011;24333;42.626;23.308;2022-10-16T00:20:13;6.88;;;2.38;;
38557;SDS011;24333;42.626;23.308;2022-10-16T00:22:38;3.60;;;2.22;;
38557;SDS011;24333;42.626;23.308;2022-10-16T00:25:05;4.10;;;2.25;;
38557;SDS011;24333;42.626;23.308;2022-10-16T00:27:36;5.70;;;2.92;;
38557;SDS011;24333;42.626;23.308;2022-10-16T00:30:55;4.28;;;2.28;;
38557;SDS011;24333;42.626;23.308;2022-10-16T00:33:21;4.90;;;2.28;;
38557;SDS011;24333;42.626;23.308;2022-10-16T00:35:47;5.63;;;2.45;;
38557;SDS011;24333;42.626;23.308;2022-10-16T00:38:13;3.50;;;2.03;;
38557;SDS011;24333;42.626;23.308;2022-10-16T00:40:38;9.63;;;2.67;;
38557;SDS011;24333;42.626;23.308;2022-10-16T00:43:10;5.45;;;2.63;;
38557;SDS011;24333;42.626;23.308;2022-10-16T00:45:39;6.60;;;2.20;;
38557;SDS011;24333;42.626;23.308;2022-10-16T00:48:30;4.55;;;2.35;;
38557;SDS011;24333;42.626;23.308;2022-10-16T00:51:22;3.97;;;1.95;;
38557;SDS011;24333;42.626;23.308;2022-10-16T00:53:53;3.90;;;1.92;;
38557;SDS011;24333;42.626;23.308;2022-10-16T00:56:45;3.50;;;2.08;;
38557;SDS011;24333;42.626;23.308;2022-10-16T01:00:24;4.05;;;2.65;;
38557;SDS011;24333;42.626;23.308;2022-10-16T01:02:53;6.13;;;2.35;;
38557;SDS011;24333;42.626;23.308;2022-10-16T01:05:21;5.85;;;2.80;;
38557;SDS011;24333;42.626;23.308;2022-10-16T01:07:58;8.93;;;2.90;;
38557;SDS011;24333;42.626;23.308;2022-10-16T01:10:51;4.65;;;2.47;;
38557;SDS011;24333;42.626;23.308;2022-10-16T01:13:27;6.25;;;2.10;;
38557;SDS011;24333;42.626;23.308;2022-10-16T01:19:36;5.22;;;2.03;;
38557;SDS011;24333;42.626;23.308;2022-10-16T01:22:33;7.07;;;2.53;;
38557;SDS011;24333;42.626;23.308;2022-10-16T01:25:17;3.33;;;2.30;;
38557;SDS011;24333;42.626;23.308;2022-10-16T01:27:57;7.28;;;2.53;;
38557;SDS011;24333;42.626;23.308;2022-10-16T01:30:27;3.78;;;2.30;;
38557;SDS011;24333;42.626;23.308;2022-10-16T01:35:42;5.38;;;2.00;;
38557;SDS011;24333;42.626;23.308;2022-10-16T01:38:16;2.80;;;1.35;;
38557;SDS011;24333;42.626;23.308;2022-10-16T01:40:51;5.90;;;2.08;;
38557;SDS011;24333;42.626;23.308;2022-10-16T01:43:24;4.40;;;2.22;;
38557;SDS011;24333;42.626;23.308;2022-10-16T01:45:59;9.30;;;2.67;;
38557;SDS011;24333;42.626;23.308;2022-10-16T01:48:26;2.63;;;1.70;;
38557;SDS011;24333;42.626;23.308;2022-10-16T01:51:19;3.08;;;1.73;;
38557;SDS011;24333;42.626;23.308;2022-10-16T01:53:52;4.38;;;2.40;;
38557;SDS011;24333;42.626;23.308;2022-10-16T01:56:23;2.15;;;1.42;;
38557;SDS011;24333;42.626;23.308;2022-10-16T01:59:29;4.65;;;2.17;;
38557;SDS011;24333;42.626;23.308;2022-10-16T02:02:01;5.35;;;2.40;;
38557;SDS011;24333;42.626;23.308;2022-10-16T02:05:05;5.90;;;2.13;;
38557;SDS011;24333;42.626;23.308;2022-10-16T02:07:48;5.05;;;1.83;;
38557;SDS011;24333;42.626;23.308;2022-10-16T02:45:44;5.72;;;2.42;;
38557;SDS011;24333;42.626;23.308;2022-10-16T02:48:09;5.40;;;2.65;;
38557;SDS011;24333;42.626;23.308;2022-10-16T02:50:34;5.05;;;2.70;;
38557;SDS011;24333;42.626;23.308;2022-10-16T02:53:00;4.60;;;2.40;;
38557;SDS011;24333;42.626;23.308;2022-10-16T02:55:25;6.80;;;2.58;;
38557;SDS011;24333;42.626;23.308;2022-10-16T02:57:52;5.55;;;2.83;;
38557;SDS011;24333;42.626;23.308;2022-10-16T03:00:19;4.93;;;2.60;;
38557;SDS011;24333;42.626;23.308;2022-10-16T03:02:45;5.85;;;2.30;;
38557;SDS011;24333;42.626;23.308;2022-10-16T03:05:11;4.40;;;2.22;;
38557;SDS011;24333;42.626;23.308;2022-10-16T03:07:37;7.40;;;3.25;;
38557;SDS011;24333;42.626;23.308;2022-10-16T03:10:05;6.38;;;2.97;;
38557;SDS011;24333;42.626;23.308;2022-10-16T03:12:31;7.07;;;3.13;;
38557;SDS011;24333;42.626;23.308;2022-10-16T03:14:57;7.70;;;3.50;;
38557;SDS011;24333;42.626;23.308;2022-10-16T03:17:23;5.95;;;3.00;;
38557;SDS011;24333;42.626;23.308;2022-10-16T03:19:49;9.70;;;3.60;;
38557;SDS011;24333;42.626;23.308;2022-10-16T03:22:14;16.80;;;5.10;;
38557;SDS011;24333;42.626;23.308;2022-10-16T03:24:40;16.05;;;5.35;;
38557;SDS011;24333;42.626;23.308;2022-10-16T03:27:05;12.70;;;4.70;;
38557;SDS011;24333;42.626;23.308;2022-10-16T03:29:31;15.38;;;6.10;;
38557;SDS011;24333;42.626;23.308;2022-10-16T03:31:58;10.27;;;4.32;;
38557;SDS011;24333;42.626;23.308;2022-10-16T03:34:24;12.85;;;4.65;;
38557;SDS011;24333;42.626;23.308;2022-10-16T03:36:52;11.50;;;4.53;;
38557;SDS011;24333;42.626;23.308;2022-10-16T03:41:54;8.68;;;4.10;;
38557;SDS011;24333;42.626;23.308;2022-10-16T03:44:19;11.40;;;4.32;;
38557;SDS011;24333;42.626;23.308;2022-10-16T03:46:45;10.25;;;4.75;;
38557;SDS011;24333;42.626;23.308;2022-10-16T03:49:10;13.50;;;5.68;;
38557;SDS011;24333;42.626;23.308;2022-10-16T03:51:36;13.10;;;5.63;;
38557;SDS011;24333;42.626;23.308;2022-10-16T03:54:02;11.05;;;5.57;;
38557;SDS011;24333;42.626;23.308;2022-10-16T03:56:27;20.45;;;5.90;;
38557;SDS011;24333;42.626;23.308;2022-10-16T03:58:53;14.23;;;5.97;;
38557;SDS011;24333;42.626;23.308;2022-10-16T04:01:18;15.82;;;6.10;;
38557;SDS011;24333;42.626;23.308;2022-10-16T04:03:43;13.65;;;6.10;;
38557;SDS011;24333;42.626;23.308;2022-10-16T04:06:09;16.92;;;5.63;;
38557;SDS011;24333;42.626;23.308;2022-10-16T04:08:34;13.57;;;5.72;;
38557;SDS011;24333;42.626;23.308;2022-10-16T04:11:01;13.98;;;4.75;;
38557;SDS011;24333;42.626;23.308;2022-10-16T04:13:27;11.02;;;4.53;;
38557;SDS011;24333;42.626;23.308;2022-10-16T04:15:52;8.45;;;3.38;;
38557;SDS011;24333;42.626;23.308;2022-10-16T04:18:18;6.68;;;3.17;;
38557;SDS011;24333;42.626;23.308;2022-10-16T04:20:43;7.97;;;2.90;;
38557;SDS011;24333;42.626;23.308;2022-10-16T04:23:09;9.18;;;3.97;;
38557;SDS011;24333;42.626;23.308;2022-10-16T04:25:34;8.65;;;3.75;;
38557;SDS011;24333;42.626;23.308;2022-10-16T04:59:22;11.02;;;6.18;;
38557;SDS011;24333;42.626;23.308;2022-10-16T05:01:48;9.55;;;4.60;;
38557;SDS011;24333;42.626;23.308;2022-10-16T05:04:14;11.18;;;4.90;;
38557;SDS011;24333;42.626;23.308;2022-10-16T05:06:40;12.32;;;4.47;;
38557;SDS011;24333;42.626;23.308;2022-10-16T05:09:06;8.43;;;3.85;;
38557;SDS011;24333;42.626;23.308;2022-10-16T05:11:32;9.80;;;3.90;;
38557;SDS011;24333;42.626;23.308;2022-10-16T05:13:58;9.27;;;4.03;;
38557;SDS011;24333;42.626;23.308;2022-10-16T05:16:24;8.18;;;3.42;;
38557;SDS011;24333;42.626;23.308;2022-10-16T05:18:51;10.45;;;4.25;;
38557;SDS011;24333;42.626;23.308;2022-10-16T05:21:16;8.00;;;3.90;;
38557;SDS011;24333;42.626;23.308;2022-10-16T05:23:42;6.22;;;3.60;;
38557;SDS011;24333;42.626;23.308;2022-10-16T05:26:08;9.82;;;3.80;;
38557;SDS011;24333;42.626;23.308;2022-10-16T05:28:33;8.65;;;4.18;;
38557;SDS011;24333;42.626;23.308;2022-10-16T05:30:59;8.43;;;4.18;;
38557;SDS011;24333;42.626;23.308;2022-10-16T05:33:28;8.05;;;3.67;;
38557;SDS011;24333;42.626;23.308;2022-10-16T05:35:54;10.20;;;4.28;;
38557;SDS011;24333;42.626;23.308;2022-10-16T05:38:19;10.13;;;4.07;;
38557;SDS011;24333;42.626;23.308;2022-10-16T05:40:50;7.70;;;3.78;;
38557;SDS011;24333;42.626;23.308;2022-10-16T05:43:17;8.45;;;3.75;;
38557;SDS011;24333;42.626;23.308;2022-10-16T05:46:03;9.60;;;4.28;;
38557;SDS011;24333;42.626;23.308;2022-10-16T05:48:37;10.98;;;5.30;;
38557;SDS011;24333;42.626;23.308;2022-10-16T05:51:07;11.38;;;5.25;;
38557;SDS011;24333;42.626;23.308;2022-10-16T05:53:36;10.65;;;5.35;;
38557;SDS011;24333;42.626;23.308;2022-10-16T05:56:29;7.47;;;4.28;;
38557;SDS011;24333;42.626;23.308;2022-10-16T05:59:03;10.40;;;4.53;;
38557;SDS011;24333;42.626;23.308;2022-10-16T06:02:04;11.80;;;4.50;;
38557;SDS011;24333;42.626;23.308;2022-10-16T06:04:29;8.55;;;3.80;;
38557;SDS011;24333;42.626;23.308;2022-10-16T06:06:59;11.63;;;3.70;;
38557;SDS011;24333;42.626;23.308;2022-10-16T06:09:29;20.65;;;7.00;;
38557;SDS011;24333;42.626;23.308;2022-10-16T06:12:07;14.93;;;6.25;;
38557;SDS011;24333;42.626;23.308;2022-10-16T06:14:33;9.32;;;5.75;;
38557;SDS011;24333;42.626;23.308;2022-10-16T06:16:58;12.02;;;5.72;;
38557;SDS011;24333;42.626;23.308;2022-10-16T06:19:24;12.13;;;5.13;;
38557;SDS011;24333;42.626;23.308;2022-10-16T06:21:49;13.43;;;5.65;;
38557;SDS011;24333;42.626;23.308;2022-10-16T06:24:15;13.85;;;6.72;;
38557;SDS011;24333;42.626;23.308;2022-10-16T06:26:40;14.88;;;6.78;;
38557;SDS011;24333;42.626;23.308;2022-10-16T06:29:06;12.57;;;5.55;;
38557;SDS011;24333;42.626;23.308;2022-10-16T06:31:31;8.10;;;4.68;;
38557;SDS011;24333;42.626;23.308;2022-10-16T06:33:58;10.00;;;4.78;;
38557;SDS011;24333;42.626;23.308;2022-10-16T06:36:48;6.70;;;4.10;;
38557;SDS011;24333;42.626;23.308;2022-10-16T06:39:16;11.02;;;4.10;;
38557;SDS011;24333;42.626;23.308;2022-10-16T06:41:42;11.98;;;5.82;;
38557;SDS011;24333;42.626;23.308;2022-10-16T06:44:23;11.88;;;5.78;;
38557;SDS011;24333;42.626;23.308;2022-10-16T06:49:38;13.57;;;6.90;;
38557;SDS011;24333;42.626;23.308;2022-10-16T06:52:04;28.17;;;13.32;;
38557;SDS011;24333;42.626;23.308;2022-10-16T06:54:29;24.85;;;11.27;;
38557;SDS011;24333;42.626;23.308;2022-10-16T06:56:55;14.63;;;6.57;;
38557;SDS011;24333;42.626;23.308;2022-10-16T06:59:21;25.45;;;14.02;;
38557;SDS011;24333;42.626;23.308;2022-10-16T07:01:47;29.45;;;15.27;;
38557;SDS011;24333;42.626;23.308;2022-10-16T07:10:15;86.25;;;40.58;;
38557;SDS011;24333;42.626;23.308;2022-10-16T07:12:40;80.72;;;37.88;;
38557;SDS011;24333;42.626;23.308;2022-10-16T07:15:06;16.50;;;7.00;;
38557;SDS011;24333;42.626;23.308;2022-10-16T07:17:32;24.27;;;11.38;;
38557;SDS011;24333;42.626;23.308;2022-10-16T07:19:57;20.40;;;10.82;;
38557;SDS011;24333;42.626;23.308;2022-10-16T07:22:23;12.15;;;5.55;;
38557;SDS011;24333;42.626;23.308;2022-10-16T07:24:48;12.70;;;5.18;;
38557;SDS011;24333;42.626;23.308;2022-10-16T07:27:15;11.30;;;4.20;;
38557;SDS011;24333;42.626;23.308;2022-10-16T07:29:42;7.15;;;4.28;;
38557;SDS011;24333;42.626;23.308;2022-10-16T07:50:18;9.38;;;4.10;;
38557;SDS011;24333;42.626;23.308;2022-10-16T07:52:44;7.90;;;4.00;;
38557;SDS011;24333;42.626;23.308;2022-10-16T07:55:10;10.48;;;3.78;;
38557;SDS011;24333;42.626;23.308;2022-10-16T07:57:36;8.20;;;3.72;;
38557;SDS011;24333;42.626;23.308;2022-10-16T08:00:02;7.18;;;4.07;;
38557;SDS011;24333;42.626;23.308;2022-10-16T08:27:21;14.32;;;5.30;;
38557;SDS011;24333;42.626;23.308;2022-10-16T08:29:48;10.73;;;4.75;;
38557;SDS011;24333;42.626;23.308;2022-10-16T08:32:14;10.50;;;4.75;;
38557;SDS011;24333;42.626;23.308;2022-10-16T08:34:41;9.07;;;4.03;;
38557;SDS011;24333;42.626;23.308;2022-10-16T08:40:17;9.27;;;4.20;;
38557;SDS011;24333;42.626;23.308;2022-10-16T08:43:03;7.28;;;4.10;;
38557;SDS011;24333;42.626;23.308;2022-10-16T08:48:50;12.32;;;4.43;;
38557;SDS011;24333;42.626;23.308;2022-10-16T08:51:20;7.95;;;3.83;;
38557;SDS011;24333;42.626;23.308;2022-10-16T08:53:48;7.55;;;3.25;;
38557;SDS011;24333;42.626;23.308;2022-10-16T08:56:15;5.90;;;3.55;;
38557;SDS011;24333;42.626;23.308;2022-10-16T08:59:01;11.13;;;3.50;;
38557;SDS011;24333;42.626;23.308;2022-10-16T09:04:48;7.30;;;2.75;;
38557;SDS011;24333;42.626;23.308;2022-10-16T09:07:23;4.80;;;2.45;;
38557;SDS011;24333;42.626;23.308;2022-10-16T09:10:30;5.13;;;2.38;;
38557;SDS011;24333;42.626;23.308;2022-10-16T09:13:35;7.47;;;2.45;;
38557;SDS011;24333;42.626;23.308;2022-10-16T09:20:12;7.28;;;2.50;;
38557;SDS011;24333;42.626;23.308;2022-10-16T09:41:37;4.55;;;2.35;;
38557;SDS011;24333;42.626;23.308;2022-10-16T09:54:52;7.05;;;2.50;;
38557;SDS011;24333;42.626;23.308;2022-10-16T10:00:53;5.63;;;2.50;;
38557;SDS011;24333;42.626;23.308;2022-10-16T10:03:36;6.53;;;2.78;;
38557;SDS011;24333;42.626;23.308;2022-10-16T10:06:55;5.90;;;2.42;;
38557;SDS011;24333;42.626;23.308;2022-10-16T10:12:28;3.90;;;2.00;;
38557;SDS011;24333;42.626;23.308;2022-10-16T10:14:58;4.20;;;2.35;;
38557;SDS011;24333;42.626;23.308;2022-10-16T10:17:45;3.90;;;2.50;;
38557;SDS011;24333;42.626;23.308;2022-10-16T10:22:55;4.82;;;2.25;;
38557;SDS011;24333;42.626;23.308;2022-10-16T10:31:37;3.25;;;2.00;;
38557;SDS011;24333;42.626;23.308;2022-10-16T10:36:40;5.72;;;2.47;;
38557;SDS011;24333;42.626;23.308;2022-10-16T10:47:17;4.20;;;2.10;;
38557;SDS011;24333;42.626;23.308;2022-10-16T10:52:51;3.03;;;1.83;;
38557;SDS011;24333;42.626;23.308;2022-10-16T10:56:04;11.57;;;3.08;;
38557;SDS011;24333;42.626;23.308;2022-10-16T11:01:24;3.83;;;2.00;;
38557;SDS011;24333;42.626;23.308;2022-10-16T11:06:33;4.68;;;2.08;;
38557;SDS011;24333;42.626;23.308;2022-10-16T11:09:21;4.53;;;2.63;;
38557;SDS011;24333;42.626;23.308;2022-10-16T11:12:22;4.43;;;1.95;;
38557;SDS011;24333;42.626;23.308;2022-10-16T11:17:51;6.15;;;1.80;;
38557;SDS011;24333;42.626;23.308;2022-10-16T11:21:00;5.43;;;1.75;;
38557;SDS011;24333;42.626;23.308;2022-10-16T11:23:37;5.78;;;2.20;;
38557;SDS011;24333;42.626;23.308;2022-10-16T11:26:18;2.45;;;1.65;;
38557;SDS011;24333;42.626;23.308;2022-10-16T11:28:48;4.30;;;1.40;;
38557;SDS011;24333;42.626;23.308;2022-10-16T11:31:33;5.43;;;2.03;;
38557;SDS011;24333;42.626;23.308;2022-10-16T11:39:44;4.55;;;1.90;;
38557;SDS011;24333;42.626;23.308;2022-10-16T11:42:21;8.52;;;2.40;;
38557;SDS011;24333;42.626;23.308;2022-10-16T11:50:53;4.30;;;2.47;;
38557;SDS011;24333;42.626;23.308;2022-10-16T11:56:06;4.20;;;1.90;;
38557;SDS011;24333;42.626;23.308;2022-10-16T12:02:11;9.93;;;3.30;;
38557;SDS011;24333;42.626;23.308;2022-10-16T12:04:43;6.55;;;2.33;;
38557;SDS011;24333;42.626;23.308;2022-10-16T12:07:24;3.75;;;2.05;;
38557;SDS011;24333;42.626;23.308;2022-10-16T12:09:57;4.28;;;2.00;;
38557;SDS011;24333;42.626;23.308;2022-10-16T12:15:17;4.13;;;1.30;;
38557;SDS011;24333;42.626;23.308;2022-10-16T12:17:45;4.72;;;1.42;;
38557;SDS011;24333;42.626;23.308;2022-10-16T12:22:37;2.78;;;1.20;;
38557;SDS011;24333;42.626;23.308;2022-10-16T12:30:52;7.13;;;1.63;;
38557;SDS011;24333;42.626;23.308;2022-10-16T12:33:23;2.35;;;1.33;;
38557;SDS011;24333;42.626;23.308;2022-10-16T12:35:53;3.63;;;1.55;;
38557;SDS011;24333;42.626;23.308;2022-10-16T12:41:10;4.35;;;1.27;;
38557;SDS011;24333;42.626;23.308;2022-10-16T12:43:40;2.47;;;1.48;;
38557;SDS011;24333;42.626;23.308;2022-10-16T12:48:35;4.10;;;1.52;;
38557;SDS011;24333;42.626;23.308;2022-10-16T12:51:10;4.93;;;1.60;;
38557;SDS011;24333;42.626;23.308;2022-10-16T12:53:37;1.70;;;1.25;;
38557;SDS011;24333;42.626;23.308;2022-10-16T13:01:10;3.83;;;1.40;;
38557;SDS011;24333;42.626;23.308;2022-10-16T13:06:30;3.88;;;1.50;;
38557;SDS011;24333;42.626;23.308;2022-10-16T13:18:19;3.88;;;1.48;;
38557;SDS011;24333;42.626;23.308;2022-10-16T13:20:55;4.00;;;1.48;;
38557;SDS011;24333;42.626;23.308;2022-10-16T14:12:45;3.92;;;1.63;;
38557;SDS011;24333;42.626;23.308;2022-10-16T14:15:39;3.97;;;1.30;;
38557;SDS011;24333;42.626;23.308;2022-10-16T14:18:05;2.58;;;1.35;;
38557;SDS011;24333;42.626;23.308;2022-10-16T14:20:32;4.95;;;1.92;;
38557;SDS011;24333;42.626;23.308;2022-10-16T14:25:43;4.40;;;1.67;;
38557;SDS011;24333;42.626;23.308;2022-10-16T14:28:22;2.30;;;1.45;;
38557;SDS011;24333;42.626;23.308;2022-10-16T14:30:49;2.35;;;1.50;;
38557;SDS011;24333;42.626;23.308;2022-10-16T14:33:22;4.30;;;1.38;;
38557;SDS011;24333;42.626;23.308;2022-10-16T14:35:59;3.88;;;1.30;;
38557;SDS011;24333;42.626;23.308;2022-10-16T14:38:25;2.27;;;1.27;;
38557;SDS011;24333;42.626;23.308;2022-10-16T14:41:08;3.72;;;1.70;;
38557;SDS011;24333;42.626;23.308;2022-10-16T14:43:39;2.80;;;1.58;;
38557;SDS011;24333;42.626;23.308;2022-10-16T14:46:08;3.47;;;1.52;;
38557;SDS011;24333;42.626;23.308;2022-10-16T14:48:40;6.43;;;1.38;;
38557;SDS011;24333;42.626;23.308;2022-10-16T14:51:19;5.00;;;1.88;;
38557;SDS011;24333;42.626;23.308;2022-10-16T14:53:45;3.70;;;1.30;;
38557;SDS011;24333;42.626;23.308;2022-10-16T14:56:19;1.50;;;1.20;;
38557;SDS011;24333;42.626;23.308;2022-10-16T14:58:50;2.80;;;1.45;;
38557;SDS011;24333;42.626;23.308;2022-10-16T15:01:16;2.78;;;1.50;;
38557;SDS011;24333;42.626;23.308;2022-10-16T15:03:43;4.32;;;1.50;;
38557;SDS011;24333;42.626;23.308;2022-10-16T15:06:12;4.03;;;1.48;;
38557;SDS011;24333;42.626;23.308;2022-10-16T15:08:39;3.22;;;1.42;;
38557;SDS011;24333;42.626;23.308;2022-10-16T15:11:05;3.65;;;1.60;;
38557;SDS011;24333;42.626;23.308;2022-10-16T15:13:36;5.20;;;1.58;;
38557;SDS011;24333;42.626;23.308;2022-10-16T15:16:11;1.92;;;1.50;;
38557;SDS011;24333;42.626;23.308;2022-10-16T15:18:38;5.03;;;1.75;;
38557;SDS011;24333;42.626;23.308;2022-10-16T15:21:03;6.25;;;2.45;;
38557;SDS011;24333;42.626;23.308;2022-10-16T15:23:30;7.90;;;2.97;;
38557;SDS011;24333;42.626;23.308;2022-10-16T15:25:56;2.88;;;1.80;;
38557;SDS011;24333;42.626;23.308;2022-10-16T15:28:23;1.77;;;1.23;;
38557;SDS011;24333;42.626;23.308;2022-10-16T15:30:50;2.95;;;1.80;;
38557;SDS011;24333;42.626;23.308;2022-10-16T15:33:17;3.65;;;1.83;;
38557;SDS011;24333;42.626;23.308;2022-10-16T15:35:49;2.78;;;1.50;;
38557;SDS011;24333;42.626;23.308;2022-10-16T15:38:16;9.68;;;2.13;;
38557;SDS011;24333;42.626;23.308;2022-10-16T15:40:44;3.13;;;1.70;;
38557;SDS011;24333;42.626;23.308;2022-10-16T15:43:10;7.00;;;2.60;;
38557;SDS011;24333;42.626;23.308;2022-10-16T15:45:36;9.02;;;4.40;;
38557;SDS011;24333;42.626;23.308;2022-10-16T15:48:02;11.60;;;3.65;;
38557;SDS011;24333;42.626;23.308;2022-10-16T15:50:28;13.63;;;5.85;;
38557;SDS011;24333;42.626;23.308;2022-10-16T15:52:55;11.43;;;6.18;;
38557;SDS011;24333;42.626;23.308;2022-10-16T15:55:21;14.18;;;5.72;;
38557;SDS011;24333;42.626;23.308;2022-10-16T15:57:46;10.27;;;5.43;;
38557;SDS011;24333;42.626;23.308;2022-10-16T16:00:13;11.93;;;6.03;;
38557;SDS011;24333;42.626;23.308;2022-10-16T16:02:43;15.23;;;5.07;;
38557;SDS011;24333;42.626;23.308;2022-10-16T16:05:14;10.90;;;3.97;;
38557;SDS011;24333;42.626;23.308;2022-10-16T16:07:39;9.65;;;4.40;;
38557;SDS011;24333;42.626;23.308;2022-10-16T16:10:06;8.38;;;3.53;;
38557;SDS011;24333;42.626;23.308;2022-10-16T16:12:33;8.68;;;2.90;;
38557;SDS011;24333;42.626;23.308;2022-10-16T16:15:00;9.63;;;3.22;;
38557;SDS011;24333;42.626;23.308;2022-10-16T16:17:25;6.93;;;2.97;;
38557;SDS011;24333;42.626;23.308;2022-10-16T16:19:51;5.57;;;2.60;;
38557;SDS011;24333;42.626;23.308;2022-10-16T16:22:16;7.25;;;2.22;;
38557;SDS011;24333;42.626;23.308;2022-10-16T16:24:42;2.85;;;1.98;;
38557;SDS011;24333;42.626;23.308;2022-10-16T16:27:07;6.00;;;2.55;;
38557;SDS011;24333;42.626;23.308;2022-10-16T16:29:33;7.63;;;1.92;;
38557;SDS011;24333;42.626;23.308;2022-10-16T16:31:59;6.18;;;2.33;;
38557;SDS011;24333;42.626;23.308;2022-10-16T16:34:28;4.57;;;2.22;;
38557;SDS011;24333;42.626;23.308;2022-10-16T16:36:54;5.80;;;2.83;;
38557;SDS011;24333;42.626;23.308;2022-10-16T16:39:20;4.60;;;2.22;;
38557;SDS011;24333;42.626;23.308;2022-10-16T16:41:46;5.03;;;2.17;;
38557;SDS011;24333;42.626;23.308;2022-10-16T16:44:14;5.88;;;2.70;;
38557;SDS011;24333;42.626;23.308;2022-10-16T16:46:41;6.13;;;2.53;;
38557;SDS011;24333;42.626;23.308;2022-10-16T16:49:13;8.35;;;2.63;;
38557;SDS011;24333;42.626;23.308;2022-10-16T16:51:39;5.82;;;1.50;;
38557;SDS011;24333;42.626;23.308;2022-10-16T16:54:05;4.07;;;1.83;;
38557;SDS011;24333;42.626;23.308;2022-10-16T16:56:32;1.70;;;1.35;;
38557;SDS011;24333;42.626;23.308;2022-10-16T16:58:58;2.47;;;1.25;;
38557;SDS011;24333;42.626;23.308;2022-10-16T17:01:24;3.70;;;1.50;;
38557;SDS011;24333;42.626;23.308;2022-10-16T17:03:54;4.32;;;1.63;;
38557;SDS011;24333;42.626;23.308;2022-10-16T17:06:22;3.75;;;1.52;;
38557;SDS011;24333;42.626;23.308;2022-10-16T17:08:54;2.08;;;1.42;;
38557;SDS011;24333;42.626;23.308;2022-10-16T17:11:21;2.47;;;2.00;;
38557;SDS011;24333;42.626;23.308;2022-10-16T17:13:49;5.93;;;2.72;;
38557;SDS011;24333;42.626;23.308;2022-10-16T17:16:15;3.67;;;2.03;;
38557;SDS011;24333;42.626;23.308;2022-10-16T17:18:43;6.57;;;2.33;;
38557;SDS011;24333;42.626;23.308;2022-10-16T17:21:09;10.98;;;2.78;;
38557;SDS011;24333;42.626;23.308;2022-10-16T17:23:36;5.00;;;2.50;;
38557;SDS011;24333;42.626;23.308;2022-10-16T17:26:03;4.70;;;2.80;;
38557;SDS011;24333;42.626;23.308;2022-10-16T17:28:30;5.30;;;2.08;;
38557;SDS011;24333;42.626;23.308;2022-10-16T17:30:55;4.90;;;2.17;;
38557;SDS011;24333;42.626;23.308;2022-10-16T17:33:21;3.30;;;1.88;;
38557;SDS011;24333;42.626;23.308;2022-10-16T17:35:46;5.07;;;2.25;;
38557;SDS011;24333;42.626;23.308;2022-10-16T17:38:12;5.05;;;2.42;;
38557;SDS011;24333;42.626;23.308;2022-10-16T17:40:39;8.57;;;2.90;;
38557;SDS011;24333;42.626;23.308;2022-10-16T18:49:39;4.65;;;2.60;;
38557;SDS011;24333;42.626;23.308;2022-10-16T18:52:05;2.55;;;1.60;;
38557;SDS011;24333;42.626;23.308;2022-10-16T18:54:30;3.17;;;2.00;;
38557;SDS011;24333;42.626;23.308;2022-10-16T18:56:56;4.57;;;1.98;;
38557;SDS011;24333;42.626;23.308;2022-10-16T18:59:21;4.40;;;2.10;;
38557;SDS011;24333;42.626;23.308;2022-10-16T19:01:47;4.60;;;1.98;;
38557;SDS011;24333;42.626;23.308;2022-10-16T19:04:15;2.63;;;1.60;;
38557;SDS011;24333;42.626;23.308;2022-10-16T19:06:45;5.03;;;2.10;;
38557;SDS011;24333;42.626;23.308;2022-10-16T19:09:14;5.05;;;1.60;;
38557;SDS011;24333;42.626;23.308;2022-10-16T19:11:41;2.20;;;1.60;;
38557;SDS011;24333;42.626;23.308;2022-10-16T19:14:07;4.60;;;2.08;;
38557;SDS011;24333;42.626;23.308;2022-10-16T19:16:34;2.58;;;1.58;;
38557;SDS011;24333;42.626;23.308;2022-10-16T19:19:01;2.42;;;1.33;;
38557;SDS011;24333;42.626;23.308;2022-10-16T19:21:29;6.05;;;2.20;;
38557;SDS011;24333;42.626;23.308;2022-10-16T19:23:58;2.92;;;1.58;;
38557;SDS011;24333;42.626;23.308;2022-10-16T19:26:26;3.15;;;1.60;;
38557;SDS011;24333;42.626;23.308;2022-10-16T19:28:56;2.33;;;1.60;;
38557;SDS011;24333;42.626;23.308;2022-10-16T19:31:23;3.65;;;1.20;;
38557;SDS011;24333;42.626;23.308;2022-10-16T19:33:52;2.95;;;1.75;;
38557;SDS011;24333;42.626;23.308;2022-10-16T19:36:22;2.08;;;1.45;;
38557;SDS011;24333;42.626;23.308;2022-10-16T19:38:55;2.58;;;1.40;;
38557;SDS011;24333;42.626;23.308;2022-10-16T19:41:22;3.08;;;1.83;;
38557;SDS011;24333;42.626;23.308;2022-10-16T19:43:48;2.67;;;1.50;;
38557;SDS011;24333;42.626;23.308;2022-10-16T19:46:16;3.38;;;1.50;;
38557;SDS011;24333;42.626;23.308;2022-10-16T19:48:47;3.50;;;1.92;;
38557;SDS011;24333;42.626;23.308;2022-10-16T19:51:14;4.05;;;1.73;;
38557;SDS011;24333;42.626;23.308;2022-10-16T19:53:41;3.05;;;1.35;;
38557;SDS011;24333;42.626;23.308;2022-10-16T19:56:11;2.65;;;1.63;;
38557;SDS011;24333;42.626;23.308;2022-10-16T19:58:39;2.45;;;1.48;;
38557;SDS011;24333;42.626;23.308;2022-10-16T20:01:04;3.83;;;1.60;;
38557;SDS011;24333;42.626;23.308;2022-10-16T20:03:30;2.38;;;1.70;;
38557;SDS011;24333;42.626;23.308;2022-10-16T20:05:55;2.58;;;1.52;;
38557;SDS011;24333;42.626;23.308;2022-10-16T20:08:21;5.20;;;1.83;;
38557;SDS011;24333;42.626;23.308;2022-10-16T20:10:52;3.63;;;1.90;;
38557;SDS011;24333;42.626;23.308;2022-10-16T20:13:19;2.35;;;1.50;;
38557;SDS011;24333;42.626;23.308;2022-10-16T20:15:45;5.20;;;1.95;;
38557;SDS011;24333;42.626;23.308;2022-10-16T20:18:12;3.33;;;2.00;;
38557;SDS011;24333;42.626;23.308;2022-10-16T20:20:38;4.28;;;2.28;;
38557;SDS011;24333;42.626;23.308;2022-10-16T20:23:05;3.15;;;1.83;;
38557;SDS011;24333;42.626;23.308;2022-10-16T20:25:38;4.13;;;1.95;;
38557;SDS011;24333;42.626;23.308;2022-10-16T20:28:05;4.53;;;2.50;;
38557;SDS011;24333;42.626;23.308;2022-10-16T20:30:35;6.13;;;2.10;;
38557;SDS011;24333;42.626;23.308;2022-10-16T20:33:04;5.90;;;2.60;;
38557;SDS011;24333;42.626;23.308;2022-10-16T20:35:42;3.17;;;1.75;;
38557;SDS011;24333;42.626;23.308;2022-10-16T20:38:12;14.30;;;2.42;;
38557;SDS011;24333;42.626;23.308;2022-10-16T20:40:40;5.65;;;2.20;;
38557;SDS011;24333;42.626;23.308;2022-10-16T20:43:10;4.22;;;1.90;;
38557;SDS011;24333;42.626;23.308;2022-10-16T20:45:37;6.20;;;2.05;;
38557;SDS011;24333;42.626;23.308;2022-10-16T20:48:03;5.50;;;2.08;;
38557;SDS011;24333;42.626;23.308;2022-10-16T20:50:29;3.75;;;2.20;;
38557;SDS011;24333;42.626;23.308;2022-10-16T20:52:55;8.20;;;1.95;;
38557;SDS011;24333;42.626;23.308;2022-10-16T20:55:20;12.73;;;2.03;;
38557;SDS011;24333;42.626;23.308;2022-10-16T20:57:46;3.70;;;1.65;;
38557;SDS011;24333;42.626;23.308;2022-10-16T21:00:11;5.78;;;2.03;;
38557;SDS011;24333;42.626;23.308;2022-10-16T21:02:37;5.88;;;2.03;;
38557;SDS011;24333;42.626;23.308;2022-10-16T21:05:03;3.35;;;1.90;;
38557;SDS011;24333;42.626;23.308;2022-10-16T21:07:28;4.03;;;1.85;;
38557;SDS011;24333;42.626;23.308;2022-10-16T21:09:54;3.92;;;1.83;;
38557;SDS011;24333;42.626;23.308;2022-10-16T21:12:20;4.18;;;1.98;;
38557;SDS011;24333;42.626;23.308;2022-10-16T21:14:46;3.75;;;2.35;;
38557;SDS011;24333;42.626;23.308;2022-10-16T21:17:12;4.55;;;1.92;;